createdAt,value
2019-05-14T00:02:06.130Z,85.92
2019-05-14T00:04:46.068Z,85.79
2019-05-14T00:07:22.433Z,85.94
2019-05-14T00:09:56.698Z,86.03
2019-05-14T00:12:31.625Z,86.04
2019-05-14T00:15:07.743Z,86.14
2019-05-14T00:17:43.115Z,86.07
2019-05-14T00:20:18.002Z,86.23
2019-05-14T00:22:55.768Z,85.93
2019-05-14T00:25:31.465Z,85.73
2019-05-14T00:28:06.300Z,85.59
2019-05-14T00:30:43.826Z,86.05
2019-05-14T00:33:22.337Z,85.92
2019-05-14T00:35:58.865Z,86.17
2019-05-14T00:38:35.303Z,86.19
2019-05-14T00:41:13.207Z,85.77
2019-05-14T00:43:51.206Z,86.21
2019-05-14T00:46:27.514Z,86.13
2019-05-14T00:49:04.717Z,86.38
2019-05-14T00:51:43.877Z,86.29
2019-05-14T00:54:21.511Z,86.00
2019-05-14T00:57:01.353Z,86.36
2019-05-14T00:59:37.172Z,86.48
2019-05-14T01:02:16.048Z,86.34
2019-05-14T01:04:54.992Z,86.64
2019-05-14T01:07:32.752Z,86.59
2019-05-14T01:10:11.610Z,86.57
2019-05-14T01:12:48.498Z,86.70
2019-05-14T01:15:25.496Z,86.67
2019-05-14T01:18:03.050Z,86.50
2019-05-14T01:20:41.480Z,86.36
2019-05-14T01:23:21.459Z,86.55
2019-05-14T01:26:02.070Z,86.41
2019-05-14T01:28:41.367Z,86.29
2019-05-14T01:31:21.732Z,86.74
2019-05-14T01:33:59.358Z,86.89
2019-05-14T01:36:37.364Z,87.02
2019-05-14T01:39:14.903Z,86.82
2019-05-14T01:41:52.838Z,87.14
2019-05-14T01:44:31.906Z,87.42
2019-05-14T01:47:12.410Z,87.50
2019-05-14T01:49:45.774Z,87.68
2019-05-14T01:52:21.602Z,87.36
2019-05-14T01:54:58.713Z,87.04
2019-05-14T01:57:34.901Z,86.79
2019-05-14T02:00:12.281Z,87.15
2019-05-14T02:02:49.010Z,87.45
2019-05-14T02:05:26.288Z,87.44
2019-05-14T02:08:03.792Z,87.36
2019-05-14T02:10:38.952Z,87.36
2019-05-14T02:13:12.246Z,87.59
2019-05-14T02:15:44.634Z,87.54
2019-05-14T02:18:16.986Z,87.86
2019-05-14T02:20:53.822Z,87.92
2019-05-14T02:23:33.097Z,87.83
2019-05-14T02:26:11.417Z,87.99
2019-05-14T02:28:48.742Z,88.24
2019-05-14T02:31:29.205Z,88.17
2019-05-14T02:34:09.909Z,87.95
2019-05-14T02:36:43.925Z,88.43
2019-05-14T02:39:20.247Z,88.26
2019-05-14T02:41:58.996Z,88.32
2019-05-14T02:44:36.330Z,88.38
2019-05-14T02:47:13.259Z,88.08
2019-05-14T02:49:50.182Z,88.30
2019-05-14T02:52:29.104Z,88.45
2019-05-14T02:55:09.147Z,87.84
2019-05-14T02:57:43.062Z,88.01
2019-05-14T03:00:20.738Z,88.08
2019-05-14T03:02:59.852Z,88.39
2019-05-14T03:05:30.388Z,88.57
2019-05-14T03:08:01.328Z,88.19
2019-05-14T03:10:32.261Z,87.87
2019-05-14T03:13:03.417Z,87.93
2019-05-14T03:15:34.453Z,87.98
2019-05-14T03:18:05.368Z,88.16
2019-05-14T03:20:39.083Z,88.33
2019-05-14T03:23:15.660Z,88.83
2019-05-14T03:25:41.998Z,89.05
2019-05-14T03:28:13.157Z,88.96
2019-05-14T03:30:44.591Z,88.86
2019-05-14T03:33:21.294Z,88.79
2019-05-14T03:35:57.248Z,88.82
2019-05-14T03:38:22.298Z,88.95
2019-05-14T03:40:53.217Z,88.95
2019-05-14T03:43:24.008Z,88.99
2019-05-14T03:45:55.288Z,88.99
2019-05-14T03:48:29.329Z,88.89
2019-05-14T03:51:00.140Z,88.84
2019-05-14T03:53:31.451Z,88.69
2019-05-14T03:56:02.409Z,88.44
2019-05-14T03:58:33.418Z,88.44
2019-05-14T04:01:04.539Z,88.50
2019-05-14T04:03:35.789Z,88.37
2019-05-14T04:06:09.810Z,88.30
2019-05-14T04:08:40.568Z,87.98
2019-05-14T04:11:12.468Z,87.65
2019-05-14T04:13:44.183Z,87.87
2019-05-14T04:16:15.491Z,87.89
2019-05-14T04:18:50.361Z,87.83
2019-05-14T04:21:21.638Z,87.62
2019-05-14T04:23:54.039Z,87.76
2019-05-14T04:26:25.479Z,87.76
2019-05-14T04:29:00.380Z,87.07
2019-05-14T04:31:32.512Z,86.91
2019-05-14T04:34:03.750Z,86.74
2019-05-14T04:36:34.807Z,86.90
2019-05-14T04:39:09.431Z,86.72
2019-05-14T04:41:39.603Z,86.78
2019-05-14T04:44:10.491Z,86.49
2019-05-14T04:46:41.608Z,87.01
2019-05-14T04:49:12.508Z,87.00
2019-05-14T04:51:43.551Z,86.35
2019-05-14T04:54:14.508Z,86.34
2019-05-14T04:56:45.445Z,86.41
2019-05-14T04:59:19.189Z,86.49
2019-05-14T05:01:49.604Z,86.17
2019-05-14T05:04:20.667Z,86.64
2019-05-14T05:06:51.909Z,86.63
2019-05-14T05:09:22.727Z,86.79
2019-05-14T05:11:53.608Z,86.44
2019-05-14T05:14:24.787Z,86.46
2019-05-14T05:16:55.570Z,86.24
2019-05-14T05:19:28.860Z,85.80
2019-05-14T05:21:58.912Z,85.44
2019-05-14T05:24:30.707Z,85.44
2019-05-14T05:27:01.607Z,85.87
2019-05-14T05:29:32.527Z,85.47
2019-05-14T05:32:03.299Z,85.54
2019-05-14T05:34:34.107Z,85.83
2019-05-14T05:37:08.403Z,85.77
2019-05-14T05:39:41.309Z,85.42
2019-05-14T05:42:12.647Z,85.44
2019-05-14T05:44:48.343Z,85.32
2019-05-14T05:47:22.718Z,85.22
2019-05-14T05:49:53.715Z,85.47
2019-05-14T05:52:24.898Z,85.27
2019-05-14T05:54:58.194Z,85.62
2019-05-14T05:57:28.594Z,85.33
2019-05-14T05:59:59.508Z,86.04
2019-05-14T06:02:30.640Z,85.30
2019-05-14T06:05:01.797Z,85.00
2019-05-14T06:07:32.808Z,85.00
2019-05-14T06:10:03.587Z,85.62
2019-05-14T06:12:34.547Z,85.52
2019-05-14T06:15:08.482Z,85.57
2019-05-14T06:17:39.170Z,85.69
2019-05-14T06:20:10.508Z,85.37
2019-05-14T06:22:42.627Z,86.28
2019-05-14T06:25:13.773Z,86.10
2019-05-14T06:27:44.979Z,85.06
2019-05-14T06:30:19.048Z,84.97
2019-05-14T06:32:49.947Z,84.45
2019-05-14T06:35:21.127Z,85.62
2019-05-14T06:37:52.250Z,84.37
2019-05-14T06:40:23.260Z,83.77
2019-05-14T06:42:54.297Z,83.80
2019-05-14T06:45:25.268Z,83.37
2019-05-14T06:47:56.172Z,84.02
2019-05-14T06:50:28.436Z,84.14
2019-05-14T06:52:59.537Z,83.52
2019-05-14T06:55:30.537Z,83.63
2019-05-14T06:58:01.447Z,83.55
2019-05-14T07:00:32.668Z,82.34
2019-05-14T07:03:03.407Z,82.88
2019-05-14T07:05:35.069Z,83.14
2019-05-14T07:08:08.851Z,82.55
2019-05-14T07:10:39.504Z,82.69
2019-05-14T07:13:10.788Z,80.50
2019-05-14T07:15:41.745Z,80.16
2019-05-14T07:18:13.328Z,80.26
2019-05-14T07:20:44.357Z,81.07
2019-05-14T07:23:15.489Z,80.84
2019-05-14T07:25:48.331Z,80.34
2019-05-14T07:28:19.395Z,81.21
2019-05-14T07:30:50.353Z,80.77
2019-05-14T07:33:21.437Z,81.45
2019-05-14T07:35:52.565Z,79.79
2019-05-14T07:38:23.550Z,79.77
2019-05-14T07:40:54.467Z,80.31
2019-05-14T07:43:25.475Z,80.24
2019-05-14T07:45:58.220Z,82.03
2019-05-14T07:48:29.227Z,80.86
2019-05-14T07:51:00.287Z,79.55
2019-05-14T07:53:38.821Z,80.98
2019-05-14T07:56:04.107Z,79.36
2019-05-14T07:58:35.178Z,81.18
2019-05-14T08:01:06.188Z,80.59
2019-05-14T08:03:38.245Z,80.29
2019-05-14T08:06:09.617Z,80.51
2019-05-14T08:08:40.589Z,81.16
2019-05-14T08:11:11.648Z,80.62
2019-05-14T08:13:42.750Z,80.04
2019-05-14T08:16:13.802Z,81.48
2019-05-14T08:18:44.843Z,80.17
2019-05-14T08:21:15.783Z,79.50
2019-05-14T08:23:48.090Z,80.86
2019-05-14T08:26:19.470Z,80.75
2019-05-14T08:28:50.838Z,82.14
2019-05-14T08:31:21.767Z,80.55
2019-05-14T08:33:53.071Z,81.16
2019-05-14T08:36:23.948Z,81.88
2019-05-14T08:38:55.488Z,82.77
2019-05-14T08:41:28.645Z,83.19
2019-05-14T08:43:59.480Z,82.06
2019-05-14T08:46:30.829Z,82.43
2019-05-14T08:49:01.751Z,82.15
2019-05-14T08:51:33.609Z,83.05
2019-05-14T08:54:04.688Z,83.07
2019-05-14T08:56:38.731Z,82.77
2019-05-14T08:59:09.530Z,83.01
2019-05-14T09:01:56.921Z,83.54
2019-05-14T09:04:13.431Z,83.83
2019-05-14T09:06:44.462Z,82.62
2019-05-14T09:09:15.526Z,82.55
2019-05-14T09:11:50.255Z,81.53
2019-05-14T09:14:20.027Z,82.41
2019-05-14T09:16:51.413Z,82.37
2019-05-14T09:19:22.817Z,82.66
2019-05-14T09:21:53.789Z,83.39
2019-05-14T09:24:24.838Z,82.31
2019-05-14T09:26:55.659Z,82.45
2019-05-14T09:29:29.779Z,83.10
2019-05-14T09:31:59.361Z,82.09
2019-05-14T09:34:30.328Z,82.68
2019-05-14T09:37:01.565Z,81.98
2019-05-14T09:39:33.438Z,83.01
2019-05-14T09:42:04.508Z,83.00
2019-05-14T09:44:38.576Z,83.79
2019-05-14T09:47:08.795Z,82.98
2019-05-14T09:49:39.860Z,82.73
2019-05-14T09:52:11.147Z,82.85
2019-05-14T09:54:44.148Z,83.50
2019-05-14T09:57:14.809Z,83.63
2019-05-14T09:59:47.834Z,82.95
2019-05-14T10:02:18.429Z,82.89
2019-05-14T10:04:49.347Z,83.10
2019-05-14T10:07:20.368Z,83.85
2019-05-14T10:09:51.548Z,83.53
2019-05-14T10:12:22.598Z,84.11
2019-05-14T10:14:53.528Z,85.25
2019-05-14T10:17:24.570Z,84.12
2019-05-14T10:19:55.598Z,83.22
2019-05-14T10:22:28.532Z,83.62
2019-05-14T10:24:59.369Z,83.45
2019-05-14T10:27:31.029Z,83.51
2019-05-14T10:30:02.078Z,83.29
2019-05-14T10:32:33.167Z,83.28
2019-05-14T10:35:04.907Z,84.29
2019-05-14T10:37:36.072Z,82.75
2019-05-14T10:40:10.502Z,82.81
2019-05-14T10:42:41.029Z,82.25
2019-05-14T10:45:13.155Z,81.39
2019-05-14T10:47:44.217Z,82.14
2019-05-14T10:50:15.377Z,81.57
2019-05-14T10:52:48.864Z,82.15
2019-05-14T10:55:18.927Z,82.47
2019-05-14T10:57:54.212Z,83.79
2019-05-14T11:00:22.618Z,84.00
2019-05-14T11:02:53.557Z,80.74
2019-05-14T11:05:24.638Z,80.48
2019-05-14T11:07:58.525Z,82.00
2019-05-14T11:10:29.831Z,81.28
2019-05-14T11:13:01.089Z,80.53
2019-05-14T11:15:32.319Z,81.57
2019-05-14T11:18:03.329Z,82.37
2019-05-14T11:20:34.357Z,81.64
2019-05-14T11:23:05.589Z,82.21
2019-05-14T11:25:38.355Z,81.22
2019-05-14T11:28:09.498Z,81.14
2019-05-14T11:30:41.277Z,82.03
2019-05-14T11:33:12.229Z,81.34
2019-05-14T11:35:43.521Z,81.51
2019-05-14T11:38:28.685Z,80.96
2019-05-14T11:40:49.428Z,80.22
2019-05-14T11:43:19.611Z,80.85
2019-05-14T11:45:50.658Z,82.64
2019-05-14T11:48:21.860Z,81.57
2019-05-14T11:50:53.078Z,82.36
2019-05-14T11:53:24.128Z,82.54
2019-05-14T11:55:55.218Z,82.49
2019-05-14T11:58:26.269Z,81.19
2019-05-14T12:00:58.465Z,82.02
2019-05-14T12:03:29.597Z,81.08
2019-05-14T12:06:00.558Z,81.68
2019-05-14T12:08:31.507Z,81.29
2019-05-14T12:11:02.548Z,81.50
2019-05-14T12:13:33.590Z,82.13
2019-05-14T12:16:04.538Z,83.37
2019-05-14T12:18:41.390Z,83.11
2019-05-14T12:21:09.170Z,82.93
2019-05-14T12:23:41.178Z,83.34
2019-05-14T12:26:12.119Z,82.72
2019-05-14T12:28:43.147Z,82.64
2019-05-14T12:31:14.097Z,83.40
2019-05-14T12:33:45.275Z,82.92
2019-05-14T12:36:19.033Z,83.05
2019-05-14T12:38:49.031Z,84.02
2019-05-14T12:41:20.058Z,83.68
2019-05-14T12:43:51.097Z,84.00
2019-05-14T12:46:22.137Z,84.36
2019-05-14T12:48:53.308Z,84.74
2019-05-14T12:51:25.648Z,83.79
2019-05-14T12:53:58.270Z,83.47
2019-05-14T12:56:29.558Z,84.02
2019-05-14T12:59:00.557Z,83.82
2019-05-14T13:01:31.637Z,84.26
2019-05-14T13:04:02.872Z,83.00
2019-05-14T13:06:33.796Z,83.22
2019-05-14T13:09:05.678Z,83.14
2019-05-14T13:11:41.362Z,83.80
2019-05-14T13:14:09.917Z,83.84
2019-05-14T13:16:40.840Z,83.49
2019-05-14T13:19:12.169Z,84.06
2019-05-14T13:21:43.327Z,84.33
2019-05-14T13:24:14.497Z,83.85
2019-05-14T13:26:45.308Z,83.97
2019-05-14T13:29:19.129Z,83.81
2019-05-14T13:31:49.808Z,84.06
2019-05-14T13:34:21.928Z,83.58
2019-05-14T13:36:54.350Z,83.47
2019-05-14T13:39:25.178Z,83.78
2019-05-14T13:41:56.057Z,84.22
2019-05-14T13:44:29.158Z,83.81
2019-05-14T13:47:00.108Z,84.12
2019-05-14T13:49:31.308Z,83.81
2019-05-14T13:52:02.380Z,84.53
2019-05-14T13:54:34.688Z,84.33
2019-05-14T13:57:08.321Z,84.42
2019-05-14T13:59:44.017Z,84.39
2019-05-14T14:02:13.079Z,84.13
2019-05-14T14:04:44.278Z,84.43
2019-05-14T14:07:18.748Z,83.83
2019-05-14T14:09:49.822Z,83.96
2019-05-14T14:12:25.025Z,82.61
2019-05-14T14:14:53.782Z,83.19
2019-05-14T14:17:24.737Z,83.55
2019-05-14T14:19:55.608Z,83.15
2019-05-14T14:22:26.679Z,83.32
2019-05-14T14:24:59.239Z,83.01
2019-05-14T14:27:30.384Z,83.84
2019-05-14T14:30:02.013Z,83.49
2019-05-14T14:32:33.209Z,84.22
2019-05-14T14:35:04.397Z,83.53
2019-05-14T14:37:35.629Z,83.65
2019-05-14T14:40:09.912Z,84.10
2019-05-14T14:42:40.366Z,84.76
2019-05-14T14:45:12.797Z,85.16
2019-05-14T14:47:44.030Z,84.94
2019-05-14T14:50:15.448Z,85.15
2019-05-14T14:52:49.293Z,85.43
2019-05-14T14:55:19.520Z,85.58
2019-05-14T14:57:54.038Z,85.50
2019-05-14T15:00:23.887Z,85.67
2019-05-14T15:02:55.058Z,86.01
2019-05-14T15:05:29.330Z,86.43
2019-05-14T15:08:00.235Z,86.20
2019-05-14T15:10:31.507Z,86.05
2019-05-14T15:13:02.718Z,85.84
2019-05-14T15:15:33.817Z,85.92
2019-05-14T15:18:05.147Z,85.69
2019-05-14T15:20:36.767Z,85.98
2019-05-14T15:23:09.767Z,86.27
2019-05-14T15:25:41.199Z,85.90
2019-05-14T15:28:13.337Z,85.80
2019-05-14T15:30:44.437Z,85.48
2019-05-14T15:33:15.388Z,86.02
2019-05-14T15:35:48.674Z,86.41
2019-05-14T15:38:18.968Z,86.61
2019-05-14T15:40:49.870Z,86.52
2019-05-14T15:43:20.948Z,86.57
2019-05-14T15:45:51.968Z,86.70
2019-05-14T15:48:23.230Z,86.79
2019-05-14T15:50:54.307Z,86.57
2019-05-14T15:53:25.408Z,86.69
2019-05-14T15:55:56.488Z,86.68
2019-05-14T15:58:29.899Z,87.01
2019-05-14T16:01:01.264Z,86.89
2019-05-14T16:03:32.407Z,86.87
2019-05-14T16:06:03.447Z,86.94
2019-05-14T16:08:34.498Z,86.55
2019-05-14T16:11:06.155Z,86.85
2019-05-14T16:13:39.802Z,86.93
2019-05-14T16:16:11.277Z,87.36
2019-05-14T16:18:42.288Z,86.69
2019-05-14T16:21:18.275Z,86.68
2019-05-14T16:23:49.228Z,86.68
2019-05-14T16:26:21.678Z,87.08
2019-05-14T16:28:52.898Z,86.75
2019-05-14T16:31:24.036Z,86.93
2019-05-14T16:33:56.145Z,86.94
2019-05-14T16:36:28.877Z,87.31
2019-05-14T16:39:03.397Z,86.96
2019-05-14T16:41:35.592Z,87.40
2019-05-14T16:44:09.041Z,87.35
2019-05-14T16:46:42.940Z,87.11
2019-05-14T16:49:14.068Z,87.37
2019-05-14T16:51:44.858Z,87.23
2019-05-14T16:54:18.167Z,87.11
2019-05-14T16:56:49.117Z,86.97
2019-05-14T16:59:20.127Z,87.35
2019-05-14T17:01:51.119Z,87.63
2019-05-14T17:04:22.309Z,87.77
2019-05-14T17:06:55.636Z,87.45
2019-05-14T17:09:30.937Z,87.52
2019-05-14T17:12:02.867Z,87.54
2019-05-14T17:14:38.423Z,87.59
2019-05-14T17:17:09.430Z,87.55
2019-05-14T17:19:40.488Z,87.53
2019-05-14T17:22:24.456Z,87.64
2019-05-14T17:24:44.288Z,87.53
2019-05-14T17:27:16.018Z,87.67
2019-05-14T17:29:48.488Z,87.37
2019-05-14T17:32:19.500Z,87.48
2019-05-14T17:34:51.978Z,87.77
2019-05-14T17:37:22.967Z,87.64
2019-05-14T17:39:54.077Z,87.75
2019-05-14T17:42:25.082Z,87.69
2019-05-14T17:44:55.928Z,87.83
2019-05-14T17:47:28.843Z,88.09
2019-05-14T17:50:04.267Z,88.04
2019-05-14T17:52:35.628Z,87.86
2019-05-14T17:55:11.599Z,87.74
2019-05-14T17:57:46.214Z,88.05
2019-05-14T18:00:13.908Z,87.72
2019-05-14T18:02:45.195Z,87.74
2019-05-14T18:05:18.803Z,87.93
2019-05-14T18:07:49.927Z,87.99
2019-05-14T18:10:21.168Z,88.11
2019-05-14T18:12:52.228Z,88.36
2019-05-14T18:15:23.018Z,88.30
2019-05-14T18:17:54.200Z,88.36
2019-05-14T18:20:25.148Z,88.42
2019-05-14T18:22:58.207Z,88.03
2019-05-14T18:25:30.006Z,88.03
2019-05-14T18:28:01.550Z,88.10
2019-05-14T18:30:32.638Z,88.29
2019-05-14T18:33:03.727Z,88.38
2019-05-14T18:35:34.889Z,88.61
2019-05-14T18:38:08.117Z,88.74
2019-05-14T18:40:39.743Z,88.81
2019-05-14T18:43:11.038Z,88.77
2019-05-14T18:45:41.969Z,88.68
2019-05-14T18:48:12.974Z,88.65
2019-05-14T18:50:44.192Z,88.96
2019-05-14T18:53:15.099Z,89.14
2019-05-14T18:55:48.813Z,89.32
2019-05-14T18:58:19.716Z,89.38
2019-05-14T19:00:53.817Z,89.46
2019-05-14T19:03:28.550Z,89.29
2019-05-14T19:05:59.237Z,89.49
2019-05-14T19:08:30.141Z,89.43
2019-05-14T19:11:00.988Z,89.48
2019-05-14T19:13:31.861Z,89.32
2019-05-14T19:16:02.849Z,89.56
2019-05-14T19:18:33.723Z,89.56
2019-05-14T19:21:04.567Z,89.27
2019-05-14T19:23:38.254Z,89.56
2019-05-14T19:26:09.575Z,89.22
2019-05-14T19:28:40.654Z,89.22
2019-05-14T19:31:11.830Z,89.47
2019-05-14T19:33:43.748Z,89.58
2019-05-14T19:36:14.858Z,89.69
2019-05-14T19:38:48.131Z,89.68
2019-05-14T19:41:23.189Z,89.44
2019-05-14T19:43:59.585Z,89.52
2019-05-14T19:46:38.655Z,89.62
2019-05-14T19:49:11.190Z,89.54
2019-05-14T19:51:43.369Z,89.55
2019-05-14T19:54:19.175Z,89.60
2019-05-14T19:56:56.486Z,89.37
2019-05-14T19:59:25.909Z,89.71
2019-05-14T20:01:58.894Z,89.67
2019-05-14T20:04:30.289Z,89.57
2019-05-14T20:07:01.099Z,89.58
2019-05-14T20:09:32.147Z,89.29
2019-05-14T20:12:03.121Z,89.19
2019-05-14T20:14:34.119Z,89.36
2019-05-14T20:17:05.267Z,89.53
2019-05-14T20:19:36.187Z,89.37
2019-05-14T20:22:07.199Z,89.61
2019-05-14T20:24:41.452Z,89.60
2019-05-14T20:27:22.748Z,89.42
2019-05-14T20:29:53.650Z,89.36
2019-05-14T20:32:24.698Z,89.35
2019-05-14T20:34:57.921Z,89.57
2019-05-14T20:37:29.150Z,89.46
2019-05-14T20:40:00.089Z,89.32
2019-05-14T20:42:30.887Z,89.43
2019-05-14T20:45:01.787Z,89.38
2019-05-14T20:47:33.667Z,89.37
2019-05-14T20:50:04.538Z,89.24
2019-05-14T20:52:35.477Z,89.39
2019-05-14T20:55:09.201Z,89.17
2019-05-14T20:57:39.127Z,89.28
2019-05-14T21:00:11.639Z,89.12
2019-05-14T21:02:42.927Z,89.29
2019-05-14T21:05:14.071Z,89.05
2019-05-14T21:07:45.187Z,89.00
2019-05-14T21:10:16.058Z,89.24
2019-05-14T21:12:48.808Z,89.58
2019-05-14T21:15:19.477Z,89.62
2019-05-14T21:17:50.568Z,89.63
2019-05-14T21:20:21.527Z,89.65
2019-05-14T21:22:52.537Z,89.57
2019-05-14T21:25:24.187Z,89.53
2019-05-14T21:27:55.197Z,89.65
2019-05-14T21:30:26.118Z,89.92
2019-05-14T21:32:57.161Z,89.93
2019-05-14T21:35:29.688Z,90.01
2019-05-14T21:38:01.309Z,90.01
2019-05-14T21:40:32.272Z,90.26
2019-05-14T21:43:03.177Z,90.54
2019-05-14T21:45:34.127Z,90.36
2019-05-14T21:48:05.187Z,90.30
2019-05-14T21:50:38.514Z,90.28
2019-05-14T21:53:08.611Z,90.03
2019-05-14T21:55:39.707Z,90.08
2019-05-14T21:58:11.925Z,90.13
2019-05-14T22:00:48.579Z,90.31
2019-05-14T22:03:20.792Z,90.30
2019-05-14T22:05:51.915Z,89.98
2019-05-14T22:08:23.717Z,89.81
2019-05-14T22:10:54.709Z,90.42
2019-05-14T22:13:25.687Z,90.36
2019-05-14T22:15:58.789Z,90.26
2019-05-14T22:18:29.208Z,90.13
2019-05-14T22:21:00.412Z,89.88
2019-05-14T22:23:32.339Z,89.67
2019-05-14T22:26:03.247Z,89.71
2019-05-14T22:28:34.297Z,89.58
2019-05-14T22:31:05.318Z,89.79
2019-05-14T22:33:38.227Z,89.93
2019-05-14T22:36:08.817Z,90.03
2019-05-14T22:38:39.647Z,90.11
2019-05-14T22:41:11.602Z,90.21
2019-05-14T22:43:42.770Z,90.13
2019-05-14T22:46:13.498Z,90.41
2019-05-14T22:48:44.647Z,90.16
2019-05-14T22:51:18.150Z,90.29
2019-05-14T22:53:49.433Z,90.37
2019-05-14T22:56:22.108Z,90.25
2019-05-14T22:58:53.207Z,90.31
2019-05-14T23:01:25.087Z,90.48
2019-05-14T23:03:56.087Z,90.50
2019-05-14T23:06:28.144Z,90.55
2019-05-14T23:09:00.227Z,90.27
2019-05-14T23:11:31.107Z,90.13
2019-05-14T23:14:01.989Z,90.15
2019-05-14T23:16:37.733Z,90.02
2019-05-14T23:19:07.835Z,90.09
2019-05-14T23:21:39.049Z,90.07
2019-05-14T23:24:10.267Z,90.00
2019-05-14T23:26:41.267Z,89.95
2019-05-14T23:29:13.307Z,90.03
2019-05-14T23:31:44.418Z,89.56
2019-05-14T23:34:15.397Z,89.81
2019-05-14T23:36:48.334Z,90.02
2019-05-14T23:39:19.567Z,89.79
2019-05-14T23:41:50.487Z,89.82
2019-05-14T23:44:23.707Z,89.89
2019-05-14T23:46:54.530Z,90.00
2019-05-14T23:49:25.527Z,90.05
2019-05-14T23:51:56.453Z,90.01
2019-05-14T23:54:29.176Z,90.11
2019-05-14T23:57:00.427Z,90.00
2019-05-14T23:59:31.547Z,89.98
